This is the latest recevied weather packets stored in our database for station/object W4HIX-2. If no packets are shown the sender has not sent any weather packets the latest 10 day(s).
| Time | Temp. | Humidity | Pressure | Rain* | Wind** | Luminosity | Snow |
|---|---|---|---|---|---|---|---|
| 1777791916 | 21.11° C | 95% | 1013.6 hPa | 0 mm | - | - | - |
| 1777777536 | 23.33° C | 89% | 1013 hPa | 0 mm | - | - | - |
| 1777776916 | 23.33° C | 90% | 1012.9 hPa | 0 mm | - | - | - |
| 1777776315 | 23.33° C | 90% | 1013.1 hPa | 0 mm | - | - | - |
| 1777775715 | 23.33° C | 89% | 1012.8 hPa | 0 mm | - | - | - |
| 1777775115 | 23.33° C | 89% | 1012.8 hPa | 0 mm | - | - | - |
| 1777771516 | 23.33° C | 89% | 1012.3 hPa | 0 mm | - | - | - |
| 1777767315 | 22.78° C | 89% | 1011.6 hPa | 0.51 mm | - | - | - |
| 1777766736 | 22.78° C | 91% | 1011.6 hPa | 0.76 mm | - | - | - |
| 1777766115 | 22.78° C | 92% | 1011.7 hPa | 1.02 mm | - | - | - |
| 1777756816 | 22.22° C | 94% | 1010.3 hPa | 2.03 mm | - | - | - |
| 1777756236 | 22.22° C | 93% | 1010.4 hPa | 1.78 mm | - | - | - |
| 1777748415 | 26.67° C | 91% | 1011.4 hPa | 0 mm | - | - | - |
| 1777744815 | 26.67° C | 89% | 1011.6 hPa | 0 mm | - | - | - |
| 1777741816 | 26.67° C | 90% | 1011.9 hPa | 0 mm | - | - | - |
| 1777741215 | 26.67° C | 89% | 1012 hPa | 0 mm | - | - | - |
| 1777740035 | 26.67° C | 88% | 1011.9 hPa | 0 mm | - | - | - |
| 1777738215 | 27.22° C | 87% | 1011.7 hPa | 0 mm | - | - | - |
| 1777737635 | 26.67° C | 88% | 1011.9 hPa | 0 mm | - | - | - |
| 1777735815 | 26.67° C | 87% | 1012.5 hPa | 0 mm | - | - | - |
| 1777733415 | 26.67° C | 86% | 1011.6 hPa | 0 mm | - | - | - |
| 1777732815 | 26.67° C | 85% | 1011.6 hPa | 0 mm | - | - | - |
| 1777725017 | 25.56° C | 90% | 1010.2 hPa | 0 mm | - | - | - |
| 1777723817 | 24.44° C | 89% | 1010 hPa | 0 mm | - | - | - |
| 1777719017 | 23.33° C | 91% | 1009.8 hPa | 0 mm | - | - | - |
* Rain latest hour (hover to see other rain measurements)
** Current wind speed in m/s (hover to see current wind gust speed)